sensor_id;sensor_type;location;lat;lon;timestamp;temperature;humidity
11818;DHT22;5966;52.402;5.322;2023-04-24T00:00:52;11.20;99.90
11818;DHT22;5966;52.402;5.322;2023-04-24T00:03:23;11.20;99.90
11818;DHT22;5966;52.402;5.322;2023-04-24T00:05:51;11.20;99.90
11818;DHT22;5966;52.402;5.322;2023-04-24T00:08:19;11.20;99.90
11818;DHT22;5966;52.402;5.322;2023-04-24T00:10:49;11.20;99.90
11818;DHT22;5966;52.402;5.322;2023-04-24T00:13:18;11.20;99.90
11818;DHT22;5966;52.402;5.322;2023-04-24T00:15:46;11.20;99.90
11818;DHT22;5966;52.402;5.322;2023-04-24T00:18:16;11.20;99.90
11818;DHT22;5966;52.402;5.322;2023-04-24T00:20:44;11.20;99.90
11818;DHT22;5966;52.402;5.322;2023-04-24T00:23:13;11.20;99.90
11818;DHT22;5966;52.402;5.322;2023-04-24T00:25:41;11.20;99.90
11818;DHT22;5966;52.402;5.322;2023-04-24T00:28:09;11.20;99.90
11818;DHT22;5966;52.402;5.322;2023-04-24T00:30:36;11.20;99.90
11818;DHT22;5966;52.402;5.322;2023-04-24T00:33:04;11.20;99.90
11818;DHT22;5966;52.402;5.322;2023-04-24T00:35:34;11.30;99.90
11818;DHT22;5966;52.402;5.322;2023-04-24T00:38:02;11.30;99.90
11818;DHT22;5966;52.402;5.322;2023-04-24T00:40:30;11.30;99.90
11818;DHT22;5966;52.402;5.322;2023-04-24T00:42:58;11.30;99.90
11818;DHT22;5966;52.402;5.322;2023-04-24T00:45:26;11.30;99.90
11818;DHT22;5966;52.402;5.322;2023-04-24T00:47:54;11.30;99.90
11818;DHT22;5966;52.402;5.322;2023-04-24T00:50:23;11.30;99.90
11818;DHT22;5966;52.402;5.322;2023-04-24T00:52:53;11.30;99.90
11818;DHT22;5966;52.402;5.322;2023-04-24T00:55:22;11.30;99.90
11818;DHT22;5966;52.402;5.322;2023-04-24T00:57:50;11.30;99.90
11818;DHT22;5966;52.402;5.322;2023-04-24T01:00:18;11.30;99.90
11818;DHT22;5966;52.402;5.322;2023-04-24T01:02:47;11.30;99.90
11818;DHT22;5966;52.402;5.322;2023-04-24T01:05:15;11.30;99.90
11818;DHT22;5966;52.402;5.322;2023-04-24T01:07:45;11.30;99.90
11818;DHT22;5966;52.402;5.322;2023-04-24T01:10:17;11.30;99.90
11818;DHT22;5966;52.402;5.322;2023-04-24T01:12:46;11.20;99.90
11818;DHT22;5966;52.402;5.322;2023-04-24T01:15:14;11.20;99.90
11818;DHT22;5966;52.402;5.322;2023-04-24T01:17:43;11.10;99.90
11818;DHT22;5966;52.402;5.322;2023-04-24T01:20:11;11.00;99.90
11818;DHT22;5966;52.402;5.322;2023-04-24T01:22:42;10.90;99.90
11818;DHT22;5966;52.402;5.322;2023-04-24T01:25:10;10.80;99.90
11818;DHT22;5966;52.402;5.322;2023-04-24T01:27:38;10.70;99.90
11818;DHT22;5966;52.402;5.322;2023-04-24T01:30:07;10.60;99.90
11818;DHT22;5966;52.402;5.322;2023-04-24T01:32:36;10.50;99.90
11818;DHT22;5966;52.402;5.322;2023-04-24T01:35:06;10.50;99.90
11818;DHT22;5966;52.402;5.322;2023-04-24T01:37:34;10.40;99.90
11818;DHT22;5966;52.402;5.322;2023-04-24T01:40:06;10.40;99.90
11818;DHT22;5966;52.402;5.322;2023-04-24T01:42:35;10.40;99.90
11818;DHT22;5966;52.402;5.322;2023-04-24T01:45:05;10.40;99.90
11818;DHT22;5966;52.402;5.322;2023-04-24T01:47:33;10.40;99.90
11818;DHT22;5966;52.402;5.322;2023-04-24T01:50:01;10.40;99.90
11818;DHT22;5966;52.402;5.322;2023-04-24T01:52:29;10.40;99.90
11818;DHT22;5966;52.402;5.322;2023-04-24T01:55:00;10.40;99.90
11818;DHT22;5966;52.402;5.322;2023-04-24T01:57:29;10.40;99.90
11818;DHT22;5966;52.402;5.322;2023-04-24T01:59:58;10.40;99.90
11818;DHT22;5966;52.402;5.322;2023-04-24T02:02:26;10.30;99.90
11818;DHT22;5966;52.402;5.322;2023-04-24T02:04:55;10.30;99.90
11818;DHT22;5966;52.402;5.322;2023-04-24T02:07:23;10.30;99.90
11818;DHT22;5966;52.402;5.322;2023-04-24T02:09:51;10.20;99.90
11818;DHT22;5966;52.402;5.322;2023-04-24T02:12:19;10.20;99.90
11818;DHT22;5966;52.402;5.322;2023-04-24T02:14:49;10.20;99.90
11818;DHT22;5966;52.402;5.322;2023-04-24T02:17:17;10.20;99.90
11818;DHT22;5966;52.402;5.322;2023-04-24T02:19:45;10.20;99.90
11818;DHT22;5966;52.402;5.322;2023-04-24T02:22:14;10.20;99.90
11818;DHT22;5966;52.402;5.322;2023-04-24T02:24:42;10.10;99.90
11818;DHT22;5966;52.402;5.322;2023-04-24T02:27:10;10.10;99.90
11818;DHT22;5966;52.402;5.322;2023-04-24T02:29:38;10.00;99.90
11818;DHT22;5966;52.402;5.322;2023-04-24T02:32:08;10.00;99.90
11818;DHT22;5966;52.402;5.322;2023-04-24T02:34:38;10.00;99.90
11818;DHT22;5966;52.402;5.322;2023-04-24T02:37:06;9.90;99.90
11818;DHT22;5966;52.402;5.322;2023-04-24T02:39:34;9.90;99.90
11818;DHT22;5966;52.402;5.322;2023-04-24T02:42:02;9.80;99.90
11818;DHT22;5966;52.402;5.322;2023-04-24T02:44:30;9.80;99.90
11818;DHT22;5966;52.402;5.322;2023-04-24T02:46:58;9.80;99.90
11818;DHT22;5966;52.402;5.322;2023-04-24T02:49:28;9.80;99.90
11818;DHT22;5966;52.402;5.322;2023-04-24T02:51:56;9.80;99.90
11818;DHT22;5966;52.402;5.322;2023-04-24T02:54:24;9.80;99.90
11818;DHT22;5966;52.402;5.322;2023-04-24T02:56:52;9.80;99.90
11818;DHT22;5966;52.402;5.322;2023-04-24T02:59:20;9.80;99.90
11818;DHT22;5966;52.402;5.322;2023-04-24T03:01:47;9.80;99.90
11818;DHT22;5966;52.402;5.322;2023-04-24T03:04:16;9.80;99.90
11818;DHT22;5966;52.402;5.322;2023-04-24T03:06:48;9.80;99.90
11818;DHT22;5966;52.402;5.322;2023-04-24T03:09:18;9.80;99.90
11818;DHT22;5966;52.402;5.322;2023-04-24T03:11:46;9.70;99.90
11818;DHT22;5966;52.402;5.322;2023-04-24T03:14:15;9.70;99.90
11818;DHT22;5966;52.402;5.322;2023-04-24T03:16:43;9.70;99.90
11818;DHT22;5966;52.402;5.322;2023-04-24T03:19:11;9.80;99.90
11818;DHT22;5966;52.402;5.322;2023-04-24T03:21:39;9.70;99.90
11818;DHT22;5966;52.402;5.322;2023-04-24T03:24:08;9.70;99.90
11818;DHT22;5966;52.402;5.322;2023-04-24T03:26:36;9.70;99.90
11818;DHT22;5966;52.402;5.322;2023-04-24T03:29:04;9.70;99.90
11818;DHT22;5966;52.402;5.322;2023-04-24T03:31:32;9.70;99.90
11818;DHT22;5966;52.402;5.322;2023-04-24T03:34:00;9.70;99.90
11818;DHT22;5966;52.402;5.322;2023-04-24T03:36:28;9.70;99.90
11818;DHT22;5966;52.402;5.322;2023-04-24T03:38:57;9.70;99.90
11818;DHT22;5966;52.402;5.322;2023-04-24T03:41:26;9.70;99.90
11818;DHT22;5966;52.402;5.322;2023-04-24T03:43:55;9.70;99.90
11818;DHT22;5966;52.402;5.322;2023-04-24T03:46:23;9.70;99.90
11818;DHT22;5966;52.402;5.322;2023-04-24T03:48:51;9.70;99.90
11818;DHT22;5966;52.402;5.322;2023-04-24T03:51:19;9.70;99.90
11818;DHT22;5966;52.402;5.322;2023-04-24T03:53:48;9.70;99.90
11818;DHT22;5966;52.402;5.322;2023-04-24T03:56:16;9.70;99.90
11818;DHT22;5966;52.402;5.322;2023-04-24T03:58:45;9.70;99.90
11818;DHT22;5966;52.402;5.322;2023-04-24T04:01:13;9.80;99.90
11818;DHT22;5966;52.402;5.322;2023-04-24T04:03:42;9.80;99.90
11818;DHT22;5966;52.402;5.322;2023-04-24T04:06:11;9.80;99.90
11818;DHT22;5966;52.402;5.322;2023-04-24T04:08:39;9.80;99.90
11818;DHT22;5966;52.402;5.322;2023-04-24T04:11:07;9.80;99.90
11818;DHT22;5966;52.402;5.322;2023-04-24T04:13:35;9.80;99.90
11818;DHT22;5966;52.402;5.322;2023-04-24T04:16:05;9.80;99.90
11818;DHT22;5966;52.402;5.322;2023-04-24T04:18:34;9.80;99.90
11818;DHT22;5966;52.402;5.322;2023-04-24T04:21:02;9.80;99.90
11818;DHT22;5966;52.402;5.322;2023-04-24T04:23:30;9.80;99.90
11818;DHT22;5966;52.402;5.322;2023-04-24T04:25:58;9.80;99.90
11818;DHT22;5966;52.402;5.322;2023-04-24T04:28:26;9.80;99.90
11818;DHT22;5966;52.402;5.322;2023-04-24T04:30:54;9.80;99.90
11818;DHT22;5966;52.402;5.322;2023-04-24T04:33:25;9.70;99.90
11818;DHT22;5966;52.402;5.322;2023-04-24T04:35:53;9.80;99.90
11818;DHT22;5966;52.402;5.322;2023-04-24T04:38:23;9.70;99.90
11818;DHT22;5966;52.402;5.322;2023-04-24T04:40:53;9.70;99.90
11818;DHT22;5966;52.402;5.322;2023-04-24T04:43:23;9.70;99.90
11818;DHT22;5966;52.402;5.322;2023-04-24T04:45:52;9.70;99.90
11818;DHT22;5966;52.402;5.322;2023-04-24T04:48:21;9.70;99.90
11818;DHT22;5966;52.402;5.322;2023-04-24T04:50:50;9.70;99.90
11818;DHT22;5966;52.402;5.322;2023-04-24T04:53:18;9.70;99.90
11818;DHT22;5966;52.402;5.322;2023-04-24T04:55:47;9.70;99.90
11818;DHT22;5966;52.402;5.322;2023-04-24T04:58:15;9.70;99.90
11818;DHT22;5966;52.402;5.322;2023-04-24T05:00:43;9.70;99.90
11818;DHT22;5966;52.402;5.322;2023-04-24T05:03:10;9.70;99.90
11818;DHT22;5966;52.402;5.322;2023-04-24T05:05:44;9.70;99.90
11818;DHT22;5966;52.402;5.322;2023-04-24T05:08:14;9.70;99.90
11818;DHT22;5966;52.402;5.322;2023-04-24T05:10:53;9.70;99.90
11818;DHT22;5966;52.402;5.322;2023-04-24T05:13:21;9.70;99.90
11818;DHT22;5966;52.402;5.322;2023-04-24T05:16:04;9.70;99.90
11818;DHT22;5966;52.402;5.322;2023-04-24T05:18:32;9.70;99.90
11818;DHT22;5966;52.402;5.322;2023-04-24T05:21:00;9.70;99.90
11818;DHT22;5966;52.402;5.322;2023-04-24T05:23:30;9.70;99.90
11818;DHT22;5966;52.402;5.322;2023-04-24T05:25:58;9.70;99.90
11818;DHT22;5966;52.402;5.322;2023-04-24T05:28:26;9.60;99.90
11818;DHT22;5966;52.402;5.322;2023-04-24T05:30:55;9.70;99.90
11818;DHT22;5966;52.402;5.322;2023-04-24T05:33:23;9.70;99.90
11818;DHT22;5966;52.402;5.322;2023-04-24T05:35:51;9.60;99.90
11818;DHT22;5966;52.402;5.322;2023-04-24T05:38:19;9.60;99.90
11818;DHT22;5966;52.402;5.322;2023-04-24T05:40:49;9.60;99.90
11818;DHT22;5966;52.402;5.322;2023-04-24T05:43:17;9.60;99.90
11818;DHT22;5966;52.402;5.322;2023-04-24T05:45:45;9.60;99.90
11818;DHT22;5966;52.402;5.322;2023-04-24T05:48:13;9.50;99.90
11818;DHT22;5966;52.402;5.322;2023-04-24T05:50:40;9.60;99.90
11818;DHT22;5966;52.402;5.322;2023-04-24T05:53:08;9.50;99.90
11818;DHT22;5966;52.402;5.322;2023-04-24T05:55:37;9.50;99.90
11818;DHT22;5966;52.402;5.322;2023-04-24T05:58:06;9.50;99.90
11818;DHT22;5966;52.402;5.322;2023-04-24T06:00:34;9.50;99.90
11818;DHT22;5966;52.402;5.322;2023-04-24T06:03:03;9.50;99.90
11818;DHT22;5966;52.402;5.322;2023-04-24T06:05:31;9.50;99.90
11818;DHT22;5966;52.402;5.322;2023-04-24T06:08:00;9.50;99.90
11818;DHT22;5966;52.402;5.322;2023-04-24T06:10:28;9.50;99.90
11818;DHT22;5966;52.402;5.322;2023-04-24T06:12:56;9.40;99.90
11818;DHT22;5966;52.402;5.322;2023-04-24T06:15:30;9.40;99.90
11818;DHT22;5966;52.402;5.322;2023-04-24T06:17:58;9.30;99.90
11818;DHT22;5966;52.402;5.322;2023-04-24T06:20:26;9.30;99.90
11818;DHT22;5966;52.402;5.322;2023-04-24T06:22:54;9.20;99.90
11818;DHT22;5966;52.402;5.322;2023-04-24T06:25:25;9.10;99.90
11818;DHT22;5966;52.402;5.322;2023-04-24T06:27:53;9.10;99.90
11818;DHT22;5966;52.402;5.322;2023-04-24T06:30:22;9.00;99.90
11818;DHT22;5966;52.402;5.322;2023-04-24T06:32:51;8.90;99.90
11818;DHT22;5966;52.402;5.322;2023-04-24T06:35:21;8.90;99.90
11818;DHT22;5966;52.402;5.322;2023-04-24T06:37:49;8.90;99.90
11818;DHT22;5966;52.402;5.322;2023-04-24T06:40:17;8.90;99.90
11818;DHT22;5966;52.402;5.322;2023-04-24T06:42:46;8.80;99.90
11818;DHT22;5966;52.402;5.322;2023-04-24T06:45:14;8.80;99.90
11818;DHT22;5966;52.402;5.322;2023-04-24T06:47:42;8.70;99.90
11818;DHT22;5966;52.402;5.322;2023-04-24T06:50:11;8.70;99.90
11818;DHT22;5966;52.402;5.322;2023-04-24T06:52:40;8.70;99.90
11818;DHT22;5966;52.402;5.322;2023-04-24T06:55:08;8.70;99.90
11818;DHT22;5966;52.402;5.322;2023-04-24T06:57:37;8.70;99.90
11818;DHT22;5966;52.402;5.322;2023-04-24T07:00:06;8.70;99.90
11818;DHT22;5966;52.402;5.322;2023-04-24T07:02:36;8.60;99.90
11818;DHT22;5966;52.402;5.322;2023-04-24T07:05:04;8.60;99.90
11818;DHT22;5966;52.402;5.322;2023-04-24T07:07:34;8.60;99.90
11818;DHT22;5966;52.402;5.322;2023-04-24T07:10:05;8.60;99.90
11818;DHT22;5966;52.402;5.322;2023-04-24T07:12:33;8.60;99.90
11818;DHT22;5966;52.402;5.322;2023-04-24T07:15:02;8.50;99.90
11818;DHT22;5966;52.402;5.322;2023-04-24T07:17:30;8.60;99.90
11818;DHT22;5966;52.402;5.322;2023-04-24T07:19:58;8.50;99.90
11818;DHT22;5966;52.402;5.322;2023-04-24T07:22:27;8.60;99.90
11818;DHT22;5966;52.402;5.322;2023-04-24T07:24:58;8.60;99.90
11818;DHT22;5966;52.402;5.322;2023-04-24T07:27:26;8.50;99.90
11818;DHT22;5966;52.402;5.322;2023-04-24T07:29:57;8.60;99.90
11818;DHT22;5966;52.402;5.322;2023-04-24T07:32:25;8.60;99.90
11818;DHT22;5966;52.402;5.322;2023-04-24T07:34:53;8.60;99.90
11818;DHT22;5966;52.402;5.322;2023-04-24T07:37:21;8.60;99.90
11818;DHT22;5966;52.402;5.322;2023-04-24T07:39:49;8.60;99.90
11818;DHT22;5966;52.402;5.322;2023-04-24T07:42:18;8.60;99.90
11818;DHT22;5966;52.402;5.322;2023-04-24T07:44:46;8.60;99.90
11818;DHT22;5966;52.402;5.322;2023-04-24T07:47:14;8.60;99.90
11818;DHT22;5966;52.402;5.322;2023-04-24T07:49:43;8.70;99.90
11818;DHT22;5966;52.402;5.322;2023-04-24T07:52:11;8.70;99.90
11818;DHT22;5966;52.402;5.322;2023-04-24T07:54:39;8.70;99.90
11818;DHT22;5966;52.402;5.322;2023-04-24T07:57:08;8.70;99.90
11818;DHT22;5966;52.402;5.322;2023-04-24T07:59:37;8.70;99.90
11818;DHT22;5966;52.402;5.322;2023-04-24T08:02:06;8.70;99.90
11818;DHT22;5966;52.402;5.322;2023-04-24T08:04:34;8.70;99.90
11818;DHT22;5966;52.402;5.322;2023-04-24T08:07:02;8.80;99.90
11818;DHT22;5966;52.402;5.322;2023-04-24T08:09:30;8.70;99.90
11818;DHT22;5966;52.402;5.322;2023-04-24T08:11:58;8.80;99.90
11818;DHT22;5966;52.402;5.322;2023-04-24T08:14:26;8.80;99.90
11818;DHT22;5966;52.402;5.322;2023-04-24T08:16:55;8.80;99.90
11818;DHT22;5966;52.402;5.322;2023-04-24T08:19:24;8.80;99.90
11818;DHT22;5966;52.402;5.322;2023-04-24T08:21:52;8.80;99.90
11818;DHT22;5966;52.402;5.322;2023-04-24T08:24:21;8.70;99.90
11818;DHT22;5966;52.402;5.322;2023-04-24T08:26:50;8.70;99.90
11818;DHT22;5966;52.402;5.322;2023-04-24T08:29:21;8.70;99.90
11818;DHT22;5966;52.402;5.322;2023-04-24T08:31:48;8.70;99.90
11818;DHT22;5966;52.402;5.322;2023-04-24T08:34:18;8.70;99.90
11818;DHT22;5966;52.402;5.322;2023-04-24T08:36:46;8.60;99.90
11818;DHT22;5966;52.402;5.322;2023-04-24T08:39:14;8.70;99.90
11818;DHT22;5966;52.402;5.322;2023-04-24T08:41:43;8.70;99.90
11818;DHT22;5966;52.402;5.322;2023-04-24T08:44:12;8.60;99.90
11818;DHT22;5966;52.402;5.322;2023-04-24T08:46:43;8.60;99.90
11818;DHT22;5966;52.402;5.322;2023-04-24T08:49:13;8.60;99.90
11818;DHT22;5966;52.402;5.322;2023-04-24T08:51:44;8.60;99.90
11818;DHT22;5966;52.402;5.322;2023-04-24T08:54:13;8.60;99.90
11818;DHT22;5966;52.402;5.322;2023-04-24T08:56:44;8.70;99.90
11818;DHT22;5966;52.402;5.322;2023-04-24T08:59:12;8.70;99.90
11818;DHT22;5966;52.402;5.322;2023-04-24T09:01:41;8.70;99.90
11818;DHT22;5966;52.402;5.322;2023-04-24T09:04:09;8.70;99.90
11818;DHT22;5966;52.402;5.322;2023-04-24T09:06:39;8.70;99.90
11818;DHT22;5966;52.402;5.322;2023-04-24T09:09:10;8.70;99.90
11818;DHT22;5966;52.402;5.322;2023-04-24T09:11:38;8.60;99.90
11818;DHT22;5966;52.402;5.322;2023-04-24T09:14:07;8.60;99.90
11818;DHT22;5966;52.402;5.322;2023-04-24T09:16:36;8.60;99.90
11818;DHT22;5966;52.402;5.322;2023-04-24T09:19:04;8.60;99.90
11818;DHT22;5966;52.402;5.322;2023-04-24T09:21:33;8.70;99.90
11818;DHT22;5966;52.402;5.322;2023-04-24T09:24:06;8.70;99.90
11818;DHT22;5966;52.402;5.322;2023-04-24T09:26:36;8.80;99.90
11818;DHT22;5966;52.402;5.322;2023-04-24T09:29:04;8.80;99.90
11818;DHT22;5966;52.402;5.322;2023-04-24T09:31:32;8.90;99.90
11818;DHT22;5966;52.402;5.322;2023-04-24T09:34:02;8.90;99.90
11818;DHT22;5966;52.402;5.322;2023-04-24T09:36:35;8.90;99.90
11818;DHT22;5966;52.402;5.322;2023-04-24T09:39:05;9.00;99.90
11818;DHT22;5966;52.402;5.322;2023-04-24T09:41:44;9.00;99.90
11818;DHT22;5966;52.402;5.322;2023-04-24T09:44:13;8.90;99.90
11818;DHT22;5966;52.402;5.322;2023-04-24T09:46:42;8.90;99.90
11818;DHT22;5966;52.402;5.322;2023-04-24T09:49:13;8.70;99.90
11818;DHT22;5966;52.402;5.322;2023-04-24T09:51:43;8.60;99.90
11818;DHT22;5966;52.402;5.322;2023-04-24T09:54:14;8.60;99.90
11818;DHT22;5966;52.402;5.322;2023-04-24T09:56:45;8.70;99.90
11818;DHT22;5966;52.402;5.322;2023-04-24T09:59:15;8.70;99.90
11818;DHT22;5966;52.402;5.322;2023-04-24T10:01:43;8.80;99.90
11818;DHT22;5966;52.402;5.322;2023-04-24T16:09:42;10.00;99.90
11818;DHT22;5966;52.402;5.322;2023-04-24T16:24:30;10.10;99.90
11818;DHT22;5966;52.402;5.322;2023-04-24T16:26:58;10.20;99.90
11818;DHT22;5966;52.402;5.322;2023-04-24T16:29:27;10.00;99.90
11818;DHT22;5966;52.402;5.322;2023-04-24T16:31:55;9.90;99.90
11818;DHT22;5966;52.402;5.322;2023-04-24T16:34:23;9.90;99.90
11818;DHT22;5966;52.402;5.322;2023-04-24T16:36:51;9.80;99.90
11818;DHT22;5966;52.402;5.322;2023-04-24T16:39:19;9.80;99.90
11818;DHT22;5966;52.402;5.322;2023-04-24T16:41:49;9.70;99.90
11818;DHT22;5966;52.402;5.322;2023-04-24T16:44:18;9.80;99.90
11818;DHT22;5966;52.402;5.322;2023-04-24T16:46:46;9.70;99.90
11818;DHT22;5966;52.402;5.322;2023-04-24T16:49:14;9.70;99.90
11818;DHT22;5966;52.402;5.322;2023-04-24T16:51:42;9.70;99.90
11818;DHT22;5966;52.402;5.322;2023-04-24T16:54:10;9.60;99.90
11818;DHT22;5966;52.402;5.322;2023-04-24T16:56:38;9.60;99.90
11818;DHT22;5966;52.402;5.322;2023-04-24T16:59:07;9.60;99.90
11818;DHT22;5966;52.402;5.322;2023-04-24T17:01:35;9.60;99.90
11818;DHT22;5966;52.402;5.322;2023-04-24T17:04:03;9.60;99.90
11818;DHT22;5966;52.402;5.322;2023-04-24T17:06:31;9.60;99.90
11818;DHT22;5966;52.402;5.322;2023-04-24T17:08:59;9.50;99.90
11818;DHT22;5966;52.402;5.322;2023-04-24T17:11:27;9.50;99.90
11818;DHT22;5966;52.402;5.322;2023-04-24T17:13:57;9.40;99.90
11818;DHT22;5966;52.402;5.322;2023-04-24T17:16:27;9.30;99.90
11818;DHT22;5966;52.402;5.322;2023-04-24T17:18:56;9.30;99.90
11818;DHT22;5966;52.402;5.322;2023-04-24T17:21:24;9.30;99.90
11818;DHT22;5966;52.402;5.322;2023-04-24T17:23:53;9.20;99.90
11818;DHT22;5966;52.402;5.322;2023-04-24T17:26:21;9.30;99.90
11818;DHT22;5966;52.402;5.322;2023-04-24T17:28:49;9.20;99.90
11818;DHT22;5966;52.402;5.322;2023-04-24T17:31:20;9.00;99.90
11818;DHT22;5966;52.402;5.322;2023-04-24T17:33:50;8.80;99.90
11818;DHT22;5966;52.402;5.322;2023-04-24T17:36:18;8.80;99.90
11818;DHT22;5966;52.402;5.322;2023-04-24T17:38:46;8.80;99.90
11818;DHT22;5966;52.402;5.322;2023-04-24T17:41:15;8.80;99.90
11818;DHT22;5966;52.402;5.322;2023-04-24T17:43:43;8.80;99.90
11818;DHT22;5966;52.402;5.322;2023-04-24T17:46:11;8.80;99.90
11818;DHT22;5966;52.402;5.322;2023-04-24T17:48:40;8.80;99.90
11818;DHT22;5966;52.402;5.322;2023-04-24T17:51:09;8.80;99.90
11818;DHT22;5966;52.402;5.322;2023-04-24T17:53:37;8.80;99.90
11818;DHT22;5966;52.402;5.322;2023-04-24T17:56:05;8.80;99.90
11818;DHT22;5966;52.402;5.322;2023-04-24T17:58:34;8.90;99.90
11818;DHT22;5966;52.402;5.322;2023-04-24T18:01:02;8.90;99.90
11818;DHT22;5966;52.402;5.322;2023-04-24T18:03:30;8.90;99.90
11818;DHT22;5966;52.402;5.322;2023-04-24T18:05:58;8.90;99.90
11818;DHT22;5966;52.402;5.322;2023-04-24T18:08:28;9.00;99.90
11818;DHT22;5966;52.402;5.322;2023-04-24T18:10:57;9.00;99.90
11818;DHT22;5966;52.402;5.322;2023-04-24T18:13:25;9.00;99.90
11818;DHT22;5966;52.402;5.322;2023-04-24T18:15:53;9.00;99.90
11818;DHT22;5966;52.402;5.322;2023-04-24T18:18:21;9.00;99.90
11818;DHT22;5966;52.402;5.322;2023-04-24T18:20:48;9.00;99.90
11818;DHT22;5966;52.402;5.322;2023-04-24T18:23:16;9.00;99.90
11818;DHT22;5966;52.402;5.322;2023-04-24T18:25:46;9.00;99.90
11818;DHT22;5966;52.402;5.322;2023-04-24T18:28:14;9.00;99.90
11818;DHT22;5966;52.402;5.322;2023-04-24T18:30:42;9.00;99.90
11818;DHT22;5966;52.402;5.322;2023-04-24T18:33:09;8.90;99.90
11818;DHT22;5966;52.402;5.322;2023-04-24T18:35:37;8.90;99.90
11818;DHT22;5966;52.402;5.322;2023-04-24T18:38:06;8.90;99.90
11818;DHT22;5966;52.402;5.322;2023-04-24T18:40:35;8.80;99.90
11818;DHT22;5966;52.402;5.322;2023-04-24T18:43:04;8.80;99.90
11818;DHT22;5966;52.402;5.322;2023-04-24T18:45:32;8.80;99.90
11818;DHT22;5966;52.402;5.322;2023-04-24T18:48:00;8.70;99.90
11818;DHT22;5966;52.402;5.322;2023-04-24T18:50:28;8.70;99.90
11818;DHT22;5966;52.402;5.322;2023-04-24T18:52:57;8.70;99.90
11818;DHT22;5966;52.402;5.322;2023-04-24T18:55:26;8.80;99.90
11818;DHT22;5966;52.402;5.322;2023-04-24T18:57:53;8.80;99.90
11818;DHT22;5966;52.402;5.322;2023-04-24T19:00:23;8.70;99.90
11818;DHT22;5966;52.402;5.322;2023-04-24T19:02:51;8.70;99.90
11818;DHT22;5966;52.402;5.322;2023-04-24T19:05:19;8.70;99.90
11818;DHT22;5966;52.402;5.322;2023-04-24T19:07:47;8.70;99.90
11818;DHT22;5966;52.402;5.322;2023-04-24T19:10:16;8.70;99.90
11818;DHT22;5966;52.402;5.322;2023-04-24T19:12:44;8.70;99.90
11818;DHT22;5966;52.402;5.322;2023-04-24T19:15:12;8.70;99.90
11818;DHT22;5966;52.402;5.322;2023-04-24T19:17:41;8.70;99.90
11818;DHT22;5966;52.402;5.322;2023-04-24T19:20:10;8.70;99.90
11818;DHT22;5966;52.402;5.322;2023-04-24T19:22:38;8.70;99.90
11818;DHT22;5966;52.402;5.322;2023-04-24T19:25:07;8.70;99.90
11818;DHT22;5966;52.402;5.322;2023-04-24T19:27:35;8.70;99.90
11818;DHT22;5966;52.402;5.322;2023-04-24T19:30:04;8.70;99.90
11818;DHT22;5966;52.402;5.322;2023-04-24T19:32:32;8.70;99.90
11818;DHT22;5966;52.402;5.322;2023-04-24T19:35:02;8.70;99.90
11818;DHT22;5966;52.402;5.322;2023-04-24T19:37:30;8.60;99.90
11818;DHT22;5966;52.402;5.322;2023-04-24T19:40:00;8.60;99.90
11818;DHT22;5966;52.402;5.322;2023-04-24T19:42:29;8.60;99.90
11818;DHT22;5966;52.402;5.322;2023-04-24T19:45:10;8.60;99.90
11818;DHT22;5966;52.402;5.322;2023-04-24T19:47:38;8.60;99.90
11818;DHT22;5966;52.402;5.322;2023-04-24T19:50:08;8.60;99.90
11818;DHT22;5966;52.402;5.322;2023-04-24T19:52:36;8.60;99.90
11818;DHT22;5966;52.402;5.322;2023-04-24T19:55:05;8.60;99.90
11818;DHT22;5966;52.402;5.322;2023-04-24T19:57:33;8.60;99.90
11818;DHT22;5966;52.402;5.322;2023-04-24T20:00:02;8.50;99.90
11818;DHT22;5966;52.402;5.322;2023-04-24T20:02:30;8.50;99.90
11818;DHT22;5966;52.402;5.322;2023-04-24T20:04:59;8.40;99.90
11818;DHT22;5966;52.402;5.322;2023-04-24T20:07:28;8.50;99.90
11818;DHT22;5966;52.402;5.322;2023-04-24T20:09:56;8.50;99.90
11818;DHT22;5966;52.402;5.322;2023-04-24T20:12:24;8.50;99.90
11818;DHT22;5966;52.402;5.322;2023-04-24T20:14:52;8.50;99.90
11818;DHT22;5966;52.402;5.322;2023-04-24T20:17:20;8.60;99.90
11818;DHT22;5966;52.402;5.322;2023-04-24T20:19:48;8.60;99.90
11818;DHT22;5966;52.402;5.322;2023-04-24T20:22:16;8.50;99.90
11818;DHT22;5966;52.402;5.322;2023-04-24T20:24:45;8.50;99.90
11818;DHT22;5966;52.402;5.322;2023-04-24T20:27:14;8.60;99.90
11818;DHT22;5966;52.402;5.322;2023-04-24T20:29:41;8.60;99.90
11818;DHT22;5966;52.402;5.322;2023-04-24T20:32:09;8.50;99.90
11818;DHT22;5966;52.402;5.322;2023-04-24T20:34:37;8.50;99.90
11818;DHT22;5966;52.402;5.322;2023-04-24T20:37:05;8.50;99.90
11818;DHT22;5966;52.402;5.322;2023-04-24T20:39:33;8.50;99.90
11818;DHT22;5966;52.402;5.322;2023-04-24T20:42:04;8.50;99.90
11818;DHT22;5966;52.402;5.322;2023-04-24T20:44:33;8.50;99.90
11818;DHT22;5966;52.402;5.322;2023-04-24T20:47:01;8.50;99.90
11818;DHT22;5966;52.402;5.322;2023-04-24T20:49:29;8.50;99.90
11818;DHT22;5966;52.402;5.322;2023-04-24T20:51:57;8.40;99.90
11818;DHT22;5966;52.402;5.322;2023-04-24T20:54:25;8.30;99.90
11818;DHT22;5966;52.402;5.322;2023-04-24T20:56:53;8.20;99.90
11818;DHT22;5966;52.402;5.322;2023-04-24T20:59:22;8.10;99.90
11818;DHT22;5966;52.402;5.322;2023-04-24T21:01:50;8.10;99.90
11818;DHT22;5966;52.402;5.322;2023-04-24T21:04:18;8.00;99.90
11818;DHT22;5966;52.402;5.322;2023-04-24T21:06:46;8.00;99.90
11818;DHT22;5966;52.402;5.322;2023-04-24T21:09:14;8.00;99.90
11818;DHT22;5966;52.402;5.322;2023-04-24T21:11:42;7.90;99.90
11818;DHT22;5966;52.402;5.322;2023-04-24T21:14:10;7.90;99.90
11818;DHT22;5966;52.402;5.322;2023-04-24T21:16:39;7.80;99.90
11818;DHT22;5966;52.402;5.322;2023-04-24T21:19:07;7.80;99.90
11818;DHT22;5966;52.402;5.322;2023-04-24T21:21:35;7.80;99.90
11818;DHT22;5966;52.402;5.322;2023-04-24T21:24:03;7.80;99.90
11818;DHT22;5966;52.402;5.322;2023-04-24T21:26:32;7.80;99.90
11818;DHT22;5966;52.402;5.322;2023-04-24T21:28:59;7.80;99.90
11818;DHT22;5966;52.402;5.322;2023-04-24T21:31:27;7.80;99.90
11818;DHT22;5966;52.402;5.322;2023-04-24T21:33:57;7.70;99.90
11818;DHT22;5966;52.402;5.322;2023-04-24T21:36:25;7.70;99.90
11818;DHT22;5966;52.402;5.322;2023-04-24T21:38:52;7.70;99.90
11818;DHT22;5966;52.402;5.322;2023-04-24T21:41:21;7.70;99.90
11818;DHT22;5966;52.402;5.322;2023-04-24T21:43:50;7.70;99.90
11818;DHT22;5966;52.402;5.322;2023-04-24T21:46:18;7.70;99.90
11818;DHT22;5966;52.402;5.322;2023-04-24T21:48:46;7.70;99.90
11818;DHT22;5966;52.402;5.322;2023-04-24T21:51:16;7.70;99.90
11818;DHT22;5966;52.402;5.322;2023-04-24T21:53:46;7.70;99.90
11818;DHT22;5966;52.402;5.322;2023-04-24T21:56:14;7.70;99.90
11818;DHT22;5966;52.402;5.322;2023-04-24T21:58:42;7.70;99.90
11818;DHT22;5966;52.402;5.322;2023-04-24T22:01:10;7.60;99.90
11818;DHT22;5966;52.402;5.322;2023-04-24T22:03:41;7.60;99.90
11818;DHT22;5966;52.402;5.322;2023-04-24T22:06:09;7.70;99.90
11818;DHT22;5966;52.402;5.322;2023-04-24T22:08:38;7.60;99.90
11818;DHT22;5966;52.402;5.322;2023-04-24T22:11:07;7.60;99.90
11818;DHT22;5966;52.402;5.322;2023-04-24T22:13:52;7.60;99.90
11818;DHT22;5966;52.402;5.322;2023-04-24T22:16:21;7.60;99.90
11818;DHT22;5966;52.402;5.322;2023-04-24T22:18:50;7.60;99.90
11818;DHT22;5966;52.402;5.322;2023-04-24T22:21:21;7.60;99.90
11818;DHT22;5966;52.402;5.322;2023-04-24T22:23:50;7.60;99.90
11818;DHT22;5966;52.402;5.322;2023-04-24T22:26:18;7.50;99.90